Glassell Park, California
Current Conditions -  °F | °C
As of 5:47 PM on Saturday 20 Dec 2014 (Local Time) from KCQT Reporting Station
Clear Clear  
Wind Chill: 59°   Ceiling: Unl
Heat Index: 59°   Visibility: 10mi
Dew Point: 53°   Wind: 0mph
Humidity: 81%   Direction: NA
Pressure: 30.11"   Gusts: NA
Location:  34.1092°N, 118.228°W
Report Text: KCQT 210147Z AUTO 00000KT 10SM CLR 15/12 A3011 RMK AO2 SLP195 T01500117
Loading
Personal Weather Stations






























Interactive Weather Map New forecast layout! Learn more

10-Day Weather Forecast

Advertisements
Track Severe Weather on mobile